createdAt,value
2023-04-16T00:01:16.189Z,99.90
2023-04-16T00:03:43.671Z,99.90
2023-04-16T00:06:12.599Z,99.90
2023-04-16T00:08:41.149Z,99.90
2023-04-16T00:11:08.268Z,99.90
2023-04-16T00:13:35.657Z,99.90
2023-04-16T00:16:03.135Z,99.90
2023-04-16T00:18:30.933Z,99.90
2023-04-16T00:20:58.110Z,99.90
2023-04-16T00:23:25.585Z,99.90
2023-04-16T00:25:53.825Z,99.90
2023-04-16T00:28:21.248Z,99.90
2023-04-16T00:30:48.472Z,99.90
2023-04-16T00:33:17.140Z,99.90
2023-04-16T00:35:46.906Z,99.90
2023-04-16T00:38:15.109Z,99.90
2023-04-16T00:40:42.311Z,99.90
2023-04-16T00:43:09.587Z,99.90
2023-04-16T00:45:37.266Z,99.90
2023-04-16T00:48:05.331Z,99.90
2023-04-16T00:50:33.202Z,99.90
2023-04-16T00:53:01.529Z,99.90
2023-04-16T00:55:29.028Z,99.90
2023-04-16T00:57:56.281Z,99.90
2023-04-16T01:00:23.647Z,99.90
2023-04-16T01:02:51.060Z,99.90
2023-04-16T01:05:19.489Z,99.90
2023-04-16T01:07:46.921Z,99.90
2023-04-16T01:10:14.194Z,99.90
2023-04-16T01:12:41.471Z,99.90
2023-04-16T01:15:09.142Z,99.90
2023-04-16T01:17:36.565Z,99.90
2023-04-16T01:20:04.139Z,99.90
2023-04-16T01:22:31.701Z,99.90
2023-04-16T01:24:59.204Z,99.90
2023-04-16T01:27:27.072Z,99.90
2023-04-16T01:29:56.374Z,99.90
2023-04-16T01:32:33.446Z,99.90
2023-04-16T01:35:00.804Z,99.90
2023-04-16T01:37:27.932Z,99.90
2023-04-16T01:39:55.166Z,99.90
2023-04-16T01:42:22.334Z,99.90
2023-04-16T01:44:50.944Z,99.90
2023-04-16T01:47:18.282Z,99.90
2023-04-16T01:49:48.323Z,99.90
2023-04-16T01:52:15.710Z,99.90
2023-04-16T01:54:43.064Z,99.90
2023-04-16T01:57:10.383Z,99.90
2023-04-16T01:59:37.686Z,99.90
2023-04-16T02:02:11.463Z,99.90
2023-04-16T02:04:41.396Z,99.90
2023-04-16T02:07:09.724Z,99.90
2023-04-16T02:09:39.115Z,99.90
2023-04-16T02:12:07.782Z,99.90
2023-04-16T02:14:35.170Z,99.90
2023-04-16T02:17:02.419Z,99.90
2023-04-16T02:19:31.309Z,99.90
2023-04-16T02:21:58.578Z,99.90
2023-04-16T02:24:25.818Z,99.90
2023-04-16T02:26:53.538Z,99.90
2023-04-16T02:29:22.639Z,99.90
2023-04-16T02:31:56.929Z,99.90
2023-04-16T02:34:25.658Z,99.90
2023-04-16T02:36:54.328Z,99.90
2023-04-16T02:39:21.716Z,99.90
2023-04-16T02:41:48.863Z,99.90
2023-04-16T02:44:16.077Z,99.90
2023-04-16T02:46:43.339Z,99.90
2023-04-16T02:49:10.916Z,99.90
2023-04-16T02:51:38.118Z,99.90
2023-04-16T02:54:05.705Z,99.90
2023-04-16T02:56:33.374Z,99.90
2023-04-16T02:59:00.796Z,99.90
2023-04-16T03:01:29.175Z,99.90
2023-04-16T03:03:56.733Z,99.90
2023-04-16T03:06:23.975Z,99.90
2023-04-16T03:08:51.318Z,99.90
2023-04-16T03:11:18.565Z,99.90
2023-04-16T03:13:46.027Z,99.90
2023-04-16T03:16:13.281Z,99.90
2023-04-16T03:18:40.726Z,99.90
2023-04-16T03:21:07.862Z,99.90
2023-04-16T03:23:36.531Z,99.90
2023-04-16T03:26:04.881Z,99.90
2023-04-16T03:28:32.199Z,99.90
2023-04-16T03:30:59.642Z,99.90
2023-04-16T03:33:27.131Z,99.90
2023-04-16T03:35:57.143Z,99.90
2023-04-16T03:38:26.817Z,99.90
2023-04-16T03:40:56.544Z,99.90
2023-04-16T03:43:23.990Z,99.90
2023-04-16T03:45:51.562Z,99.90
2023-04-16T03:48:21.901Z,99.90
2023-04-16T03:50:49.159Z,99.90
2023-04-16T03:53:19.268Z,99.90
2023-04-16T03:55:51.533Z,99.90
2023-04-16T03:58:20.480Z,99.90
2023-04-16T04:00:48.219Z,99.90
2023-04-16T04:03:17.982Z,99.90
2023-04-16T04:05:47.910Z,99.90
2023-04-16T04:08:19.987Z,99.90
2023-04-16T04:10:47.313Z,99.90
2023-04-16T04:13:15.619Z,99.90
2023-04-16T04:15:44.673Z,99.90
2023-04-16T04:18:11.809Z,99.90
2023-04-16T04:20:41.354Z,99.90
2023-04-16T04:23:08.981Z,99.90
2023-04-16T04:25:36.963Z,99.90
2023-04-16T04:28:04.342Z,99.90
2023-04-16T04:30:31.536Z,99.90
2023-04-16T04:32:58.642Z,99.90
2023-04-16T04:35:26.068Z,99.90
2023-04-16T04:37:53.610Z,99.90
2023-04-16T04:40:21.464Z,99.90
2023-04-16T04:42:48.669Z,99.90
2023-04-16T04:45:16.144Z,99.90
2023-04-16T04:47:43.437Z,99.90
2023-04-16T04:50:11.289Z,99.90
2023-04-16T04:52:39.086Z,99.90
2023-04-16T04:55:07.931Z,99.90
2023-04-16T04:57:35.847Z,99.90
2023-04-16T05:00:06.352Z,99.90
2023-04-16T05:02:41.954Z,99.90
2023-04-16T05:05:09.403Z,99.90
2023-04-16T05:07:36.922Z,99.90
2023-04-16T05:10:04.441Z,99.90
2023-04-16T05:12:31.563Z,99.90
2023-04-16T05:14:58.760Z,99.90
2023-04-16T05:17:26.005Z,99.90
2023-04-16T05:19:53.259Z,99.90
2023-04-16T05:22:20.522Z,99.90
2023-04-16T05:24:47.868Z,99.90
2023-04-16T05:27:15.045Z,99.90
2023-04-16T05:29:42.361Z,99.90
2023-04-16T05:32:10.463Z,99.90
2023-04-16T05:34:37.683Z,99.90
2023-04-16T05:37:04.897Z,99.90
2023-04-16T05:39:32.169Z,99.90
2023-04-16T05:41:59.339Z,99.90
2023-04-16T05:44:26.610Z,99.90
2023-04-16T05:46:54.053Z,99.90
2023-04-16T05:49:22.276Z,99.90
2023-04-16T05:51:50.838Z,99.90
2023-04-16T05:54:18.366Z,99.90
2023-04-16T05:56:45.639Z,99.90
2023-04-16T05:59:12.915Z,99.90
2023-04-16T06:01:40.138Z,99.90
2023-04-16T06:04:07.409Z,99.90
2023-04-16T06:06:34.597Z,99.90
2023-04-16T06:09:01.815Z,99.90
2023-04-16T06:11:30.717Z,99.90
2023-04-16T06:13:57.926Z,99.90
2023-04-16T06:16:25.494Z,99.90
2023-04-16T06:18:52.816Z,99.90
2023-04-16T06:21:20.056Z,99.90
2023-04-16T06:23:47.302Z,99.90
2023-04-16T06:26:14.462Z,99.90
2023-04-16T06:28:41.735Z,99.90
2023-04-16T06:31:09.109Z,99.90
2023-04-16T06:33:36.416Z,99.90
2023-04-16T06:36:03.655Z,99.90
2023-04-16T06:38:31.082Z,99.90
2023-04-16T06:40:59.424Z,99.90
2023-04-16T06:43:27.056Z,99.90
2023-04-16T06:45:55.528Z,99.90
2023-04-16T06:48:22.759Z,99.90
2023-04-16T06:50:49.885Z,99.90
2023-04-16T06:53:17.336Z,99.90
2023-04-16T06:55:44.436Z,99.90
2023-04-16T06:58:11.752Z,99.90
2023-04-16T07:00:39.035Z,99.90
2023-04-16T07:03:06.459Z,99.90
2023-04-16T07:05:33.748Z,99.90
2023-04-16T07:08:01.196Z,99.90
2023-04-16T07:10:28.446Z,99.90
2023-04-16T07:12:55.839Z,99.90
2023-04-16T07:15:23.081Z,99.90
2023-04-16T07:17:50.412Z,99.90
2023-04-16T07:20:17.776Z,99.90
2023-04-16T07:22:45.164Z,99.90
2023-04-16T07:25:12.394Z,99.90
2023-04-16T07:27:39.600Z,99.90
2023-04-16T07:30:08.152Z,99.90
2023-04-16T07:32:36.017Z,99.90
2023-04-16T07:35:03.911Z,99.90
2023-04-16T07:37:31.497Z,99.90
2023-04-16T07:39:59.975Z,99.90
2023-04-16T07:42:28.254Z,99.90
2023-04-16T07:44:55.873Z,99.90
2023-04-16T07:47:23.329Z,99.90
2023-04-16T07:49:50.754Z,99.90
2023-04-16T07:52:18.264Z,99.90
2023-04-16T07:54:45.461Z,99.90
2023-04-16T07:57:12.742Z,99.90
2023-04-16T07:59:39.935Z,99.90
2023-04-16T08:02:08.936Z,99.90
2023-04-16T08:04:36.570Z,99.90
2023-04-16T08:07:03.963Z,99.90
2023-04-16T08:09:31.395Z,99.90
2023-04-16T08:12:00.800Z,99.90
2023-04-16T08:14:28.147Z,99.90
2023-04-16T08:16:55.407Z,99.90
2023-04-16T08:19:22.546Z,99.90
2023-04-16T08:21:49.935Z,99.90
2023-04-16T08:24:17.112Z,99.90
2023-04-16T08:26:44.364Z,99.90
2023-04-16T08:29:11.853Z,99.90
2023-04-16T08:31:39.399Z,99.90
2023-04-16T08:34:06.849Z,99.90
2023-04-16T08:36:34.294Z,99.90
2023-04-16T08:39:01.385Z,99.90
2023-04-16T08:41:32.446Z,99.90
2023-04-16T08:44:05.827Z,99.90
2023-04-16T08:46:36.675Z,99.90
2023-04-16T08:49:07.072Z,99.90
2023-04-16T08:51:36.091Z,99.90
2023-04-16T08:54:06.228Z,99.90
2023-04-16T08:56:37.383Z,99.90
2023-04-16T08:59:05.745Z,99.90
2023-04-16T09:01:34.056Z,99.90
2023-04-16T09:04:01.848Z,99.90
2023-04-16T09:06:29.645Z,99.90
2023-04-16T09:08:59.455Z,99.90
2023-04-16T09:11:27.763Z,99.90
2023-04-16T09:13:55.165Z,99.90
2023-04-16T09:16:22.484Z,99.90
2023-04-16T09:18:49.786Z,99.90
2023-04-16T09:21:16.994Z,99.90
2023-04-16T09:23:45.395Z,99.90
2023-04-16T09:26:12.540Z,99.90
2023-04-16T09:28:42.114Z,99.90
2023-04-16T09:31:13.026Z,99.90
2023-04-16T09:33:40.587Z,99.90
2023-04-16T09:36:07.782Z,99.90
2023-04-16T09:38:38.276Z,99.90
2023-04-16T09:41:08.576Z,99.90
2023-04-16T09:43:36.519Z,99.90
2023-04-16T09:46:08.252Z,99.90
2023-04-16T09:48:36.096Z,99.90
2023-04-16T09:51:06.984Z,99.90
2023-04-16T09:53:34.427Z,99.90
2023-04-16T09:56:06.399Z,99.90
2023-04-16T09:58:38.206Z,99.90
2023-04-16T10:01:08.772Z,99.90
2023-04-16T10:03:38.026Z,99.90
2023-04-16T10:06:07.040Z,99.90
2023-04-16T10:08:34.197Z,99.90
2023-04-16T10:11:02.458Z,99.90
2023-04-16T10:13:31.397Z,99.90
2023-04-16T10:15:59.026Z,99.90
2023-04-16T10:18:26.407Z,99.90
2023-04-16T10:20:54.097Z,99.90
2023-04-16T10:23:22.965Z,99.90
2023-04-16T10:25:51.056Z,99.90
2023-04-16T10:28:18.962Z,99.90
2023-04-16T10:30:53.088Z,99.90
2023-04-16T10:33:22.002Z,99.90
2023-04-16T10:36:01.187Z,99.90
2023-04-16T10:38:35.413Z,99.90
2023-04-16T10:41:04.738Z,99.90
2023-04-16T10:43:38.647Z,99.90
2023-04-16T10:46:08.928Z,99.90
2023-04-16T10:48:48.576Z,99.90
2023-04-16T10:51:38.736Z,99.90
2023-04-16T10:54:20.051Z,99.90
2023-04-16T10:56:47.945Z,99.90
2023-04-16T10:59:20.081Z,99.90
2023-04-16T11:01:51.487Z,99.90
2023-04-16T11:04:40.093Z,99.90
2023-04-16T11:07:17.838Z,99.20
2023-04-16T11:10:02.542Z,96.80
2023-04-16T11:12:35.932Z,96.80
2023-04-16T11:15:04.946Z,97.80
2023-04-16T11:17:37.384Z,96.90
2023-04-16T11:20:19.501Z,96.50
2023-04-16T11:22:51.093Z,94.30
2023-04-16T11:25:22.361Z,96.30
2023-04-16T11:27:50.494Z,97.80
2023-04-16T11:30:18.451Z,97.50
2023-04-16T11:32:47.135Z,97.30
2023-04-16T11:35:16.849Z,92.70
2023-04-16T11:37:44.912Z,91.30
2023-04-16T11:40:13.107Z,92.50
2023-04-16T11:42:42.417Z,92.40
2023-04-16T11:45:12.227Z,92.80
2023-04-16T11:47:42.649Z,92.50
2023-04-16T11:50:12.902Z,91.10
2023-04-16T11:52:40.234Z,90.70
2023-04-16T11:55:07.711Z,90.00
2023-04-16T11:57:34.994Z,89.00
2023-04-16T12:00:03.963Z,90.20
2023-04-16T12:02:36.933Z,87.60
2023-04-16T12:05:07.570Z,90.30
2023-04-16T12:07:37.854Z,89.50
2023-04-16T12:10:07.875Z,87.00
2023-04-16T12:12:35.583Z,84.00
2023-04-16T12:15:04.088Z,85.40
2023-04-16T12:17:33.338Z,82.90
2023-04-16T12:20:02.797Z,75.80
2023-04-16T12:22:36.842Z,75.00
2023-04-16T12:25:07.164Z,73.40
2023-04-16T12:27:38.549Z,74.50
2023-04-16T12:30:07.789Z,74.00
2023-04-16T12:32:35.112Z,75.90
2023-04-16T12:35:02.483Z,78.00
2023-04-16T12:37:29.706Z,82.00
2023-04-16T12:39:56.964Z,81.30
2023-04-16T12:42:24.135Z,80.70
2023-04-16T12:44:51.660Z,79.80
2023-04-16T12:47:18.888Z,83.00
2023-04-16T12:49:46.239Z,83.10
2023-04-16T12:52:13.589Z,84.10
2023-04-16T12:54:41.230Z,84.10
2023-04-16T12:57:08.372Z,83.70
2023-04-16T12:59:35.772Z,82.90
2023-04-16T13:02:03.095Z,80.40
2023-04-16T13:04:31.102Z,80.50
2023-04-16T13:06:58.467Z,84.10
2023-04-16T13:09:26.134Z,82.50
2023-04-16T13:11:53.256Z,82.80
2023-04-16T13:14:21.448Z,82.10
2023-04-16T13:16:48.539Z,80.00
2023-04-16T13:19:16.296Z,78.70
2023-04-16T13:21:43.548Z,77.30
2023-04-16T13:24:10.821Z,73.60
2023-04-16T13:26:37.947Z,75.20
2023-04-16T13:29:05.226Z,76.50
2023-04-16T13:31:32.501Z,76.30
2023-04-16T13:33:59.746Z,79.60
2023-04-16T13:36:27.902Z,76.90
2023-04-16T13:38:55.130Z,75.80
2023-04-16T13:41:22.297Z,76.10
2023-04-16T13:43:49.727Z,71.50
2023-04-16T13:46:16.997Z,69.40
2023-04-16T13:48:44.795Z,73.00
2023-04-16T13:51:12.109Z,75.90
2023-04-16T13:53:39.296Z,73.00
2023-04-16T13:56:07.257Z,71.80
2023-04-16T13:58:34.571Z,69.20
2023-04-16T14:01:01.726Z,68.20
2023-04-16T14:03:29.068Z,66.70
2023-04-16T14:05:56.353Z,67.90
2023-04-16T14:08:25.032Z,69.90
2023-04-16T14:10:53.076Z,67.60
2023-04-16T14:13:21.602Z,68.80
2023-04-16T14:15:48.861Z,67.00
2023-04-16T14:18:16.283Z,68.00
2023-04-16T14:20:44.040Z,66.80
2023-04-16T14:23:12.498Z,71.70
2023-04-16T14:25:39.693Z,70.60
2023-04-16T14:28:07.033Z,73.20
2023-04-16T14:30:34.172Z,74.70
2023-04-16T14:33:01.580Z,70.90
2023-04-16T14:35:28.934Z,72.00
2023-04-16T14:37:56.771Z,72.30
2023-04-16T14:40:23.978Z,73.90
2023-04-16T14:42:51.428Z,71.40
2023-04-16T14:45:18.662Z,70.00
2023-04-16T14:47:48.039Z,70.30
2023-04-16T14:50:15.870Z,72.20
2023-04-16T14:52:43.386Z,74.10
2023-04-16T14:55:10.629Z,76.20
2023-04-16T14:57:39.132Z,73.70
2023-04-16T15:00:09.094Z,72.40
2023-04-16T15:02:36.830Z,74.50
2023-04-16T15:05:04.603Z,75.20
2023-04-16T15:07:31.944Z,74.00
2023-04-16T15:09:59.464Z,77.00
2023-04-16T15:12:26.858Z,74.20
2023-04-16T15:14:54.065Z,74.70
2023-04-16T15:17:21.585Z,74.40
2023-04-16T15:19:48.918Z,75.70
2023-04-16T15:22:16.898Z,77.80
2023-04-16T15:24:44.256Z,77.40
2023-04-16T15:27:12.610Z,75.60
2023-04-16T15:29:39.874Z,76.60
2023-04-16T15:32:07.165Z,76.30
2023-04-16T15:34:34.376Z,77.50
2023-04-16T15:37:01.636Z,79.80
2023-04-16T15:39:28.846Z,76.50
2023-04-16T15:42:01.275Z,76.80
2023-04-16T15:44:31.470Z,76.70
2023-04-16T15:47:00.386Z,75.30
2023-04-16T15:49:27.753Z,77.90
2023-04-16T15:51:56.319Z,78.60
2023-04-16T15:54:24.043Z,73.80
2023-04-16T15:56:51.772Z,74.30
2023-04-16T15:59:19.137Z,74.70
2023-04-16T16:01:46.519Z,74.10
2023-04-16T16:04:13.860Z,74.30
2023-04-16T16:06:41.996Z,75.60
2023-04-16T16:09:09.634Z,75.20
2023-04-16T16:11:38.723Z,76.50
2023-04-16T16:14:06.022Z,76.40
2023-04-16T16:16:33.499Z,76.90
2023-04-16T16:19:00.829Z,78.10
2023-04-16T16:21:30.351Z,79.20
2023-04-16T16:23:58.064Z,78.40
2023-04-16T16:26:25.340Z,79.50
2023-04-16T16:28:52.644Z,78.60
2023-04-16T16:31:19.989Z,79.20
2023-04-16T16:33:47.284Z,78.30
2023-04-16T16:36:14.531Z,80.90
2023-04-16T16:38:42.652Z,80.00
2023-04-16T16:41:09.805Z,82.20
2023-04-16T16:43:37.012Z,82.20
2023-04-16T16:46:05.329Z,82.80
2023-04-16T16:48:32.615Z,82.40
2023-04-16T16:50:59.754Z,81.80
2023-04-16T16:53:27.428Z,81.50
2023-04-16T16:55:54.616Z,81.80
2023-04-16T16:58:21.922Z,82.80
2023-04-16T17:00:49.182Z,82.80
2023-04-16T17:03:17.103Z,83.70
2023-04-16T17:05:44.534Z,84.30
2023-04-16T17:08:12.211Z,84.00
2023-04-16T17:10:39.418Z,83.70
2023-04-16T17:13:06.758Z,84.80
2023-04-16T17:15:34.009Z,85.40
2023-04-16T17:18:01.472Z,84.60
2023-04-16T17:20:29.052Z,85.40
2023-04-16T17:22:56.339Z,86.90
2023-04-16T17:25:23.500Z,87.00
2023-04-16T17:27:50.737Z,85.90
2023-04-16T17:30:18.628Z,86.30
2023-04-16T17:32:46.296Z,86.50
2023-04-16T17:35:14.083Z,87.90
2023-04-16T17:37:41.500Z,89.10
2023-04-16T17:40:10.163Z,89.20
2023-04-16T17:42:37.522Z,89.80
2023-04-16T17:45:05.391Z,90.20
2023-04-16T17:47:36.610Z,90.20
2023-04-16T17:50:04.858Z,90.60
2023-04-16T17:52:31.976Z,91.20
2023-04-16T17:55:01.007Z,90.70
2023-04-16T17:57:28.171Z,91.80
2023-04-16T17:59:55.687Z,91.60
2023-04-16T18:02:23.508Z,92.50
2023-04-16T18:04:51.586Z,93.40
2023-04-16T18:07:19.495Z,93.00
2023-04-16T18:09:46.827Z,93.60
2023-04-16T18:12:14.115Z,94.00
2023-04-16T18:14:44.731Z,94.40
2023-04-16T18:17:13.132Z,94.60
2023-04-16T18:19:43.780Z,95.40
2023-04-16T18:22:13.307Z,96.40
2023-04-16T18:24:40.886Z,97.20
2023-04-16T18:27:08.045Z,98.20
2023-04-16T18:29:35.608Z,98.50
2023-04-16T18:32:04.551Z,98.50
2023-04-16T18:34:32.294Z,98.90
2023-04-16T18:36:59.497Z,99.90
2023-04-16T18:39:27.239Z,99.90
2023-04-16T18:41:54.422Z,99.90
2023-04-16T18:44:21.663Z,99.90
2023-04-16T18:46:49.562Z,99.90
2023-04-16T18:49:16.812Z,99.90
2023-04-16T18:51:43.986Z,99.90
2023-04-16T18:54:11.485Z,99.90
2023-04-16T18:56:38.701Z,99.90
2023-04-16T18:59:05.890Z,99.90
2023-04-16T19:01:33.105Z,99.90
2023-04-16T19:04:00.438Z,99.90
2023-04-16T19:06:28.333Z,99.90
2023-04-16T19:08:55.767Z,99.90
2023-04-16T19:11:22.969Z,99.90
2023-04-16T19:13:50.247Z,99.90
2023-04-16T19:16:17.678Z,99.90
2023-04-16T19:18:44.918Z,99.90
2023-04-16T19:21:12.245Z,99.90
2023-04-16T19:23:39.665Z,99.90
2023-04-16T19:26:06.952Z,99.90
2023-04-16T19:28:34.104Z,99.90
2023-04-16T19:31:01.409Z,99.90
2023-04-16T19:33:28.733Z,99.90
2023-04-16T19:35:55.986Z,99.90
2023-04-16T19:38:23.264Z,99.90
2023-04-16T19:40:50.377Z,99.90
2023-04-16T19:43:17.639Z,99.90
2023-04-16T19:45:46.696Z,99.90
2023-04-16T19:48:14.530Z,99.90
2023-04-16T19:50:42.820Z,99.90
2023-04-16T19:53:11.139Z,99.90
2023-04-16T19:55:40.489Z,99.90
2023-04-16T19:58:08.928Z,99.90
2023-04-16T20:00:38.545Z,99.90
2023-04-16T20:03:06.426Z,99.90
2023-04-16T20:05:33.659Z,99.90
2023-04-16T20:08:00.953Z,99.90
2023-04-16T20:10:28.082Z,99.90
2023-04-16T20:12:55.409Z,99.90
2023-04-16T20:15:22.691Z,99.90
2023-04-16T20:17:50.004Z,99.90
2023-04-16T20:20:17.354Z,99.90
2023-04-16T20:22:44.776Z,99.90
2023-04-16T20:25:14.416Z,99.90
2023-04-16T20:27:41.769Z,99.90
2023-04-16T20:30:09.407Z,99.90
2023-04-16T20:32:36.666Z,99.90
2023-04-16T20:37:29.609Z,99.90
2023-04-16T20:39:56.863Z,99.90
2023-04-16T20:42:26.408Z,99.90
2023-04-16T20:44:56.765Z,99.90
2023-04-16T20:47:24.230Z,99.90
2023-04-16T20:49:53.002Z,99.90
2023-04-16T20:52:21.741Z,99.90
2023-04-16T20:54:52.043Z,99.90
2023-04-16T20:57:19.497Z,99.90
2023-04-16T20:59:46.778Z,99.90
2023-04-16T21:02:14.195Z,99.90
2023-04-16T21:04:41.668Z,99.90
2023-04-16T21:07:09.172Z,99.90
2023-04-16T21:09:36.348Z,99.90
2023-04-16T21:12:03.691Z,99.90
2023-04-16T21:14:30.838Z,99.90
2023-04-16T21:16:58.108Z,99.90
2023-04-16T21:19:25.426Z,99.90
2023-04-16T21:21:52.697Z,99.90
2023-04-16T21:24:19.859Z,99.90
2023-04-16T21:26:47.153Z,99.90
2023-04-16T21:29:14.475Z,99.90
2023-04-16T21:31:41.940Z,99.90
2023-04-16T21:34:09.159Z,99.90
2023-04-16T21:36:36.554Z,99.90
2023-04-16T21:39:03.792Z,99.90
2023-04-16T21:41:31.041Z,99.90
2023-04-16T21:43:58.251Z,99.90
2023-04-16T21:46:26.397Z,99.90
2023-04-16T21:48:53.917Z,99.90
2023-04-16T21:51:28.988Z,99.90
2023-04-16T21:53:57.160Z,99.90
2023-04-16T21:56:25.945Z,99.90
2023-04-16T21:58:53.290Z,99.90
2023-04-16T22:01:20.492Z,99.90
2023-04-16T22:03:50.855Z,99.90
2023-04-16T22:06:18.779Z,99.90
2023-04-16T22:08:46.035Z,99.90
2023-04-16T22:11:13.294Z,99.90
2023-04-16T22:13:42.492Z,99.90
2023-04-16T22:16:11.747Z,99.90
2023-04-16T22:18:41.058Z,99.90
2023-04-16T22:21:08.383Z,99.90
2023-04-16T22:23:35.610Z,99.90
2023-04-16T22:26:03.128Z,99.90
2023-04-16T22:28:30.431Z,99.90
2023-04-16T22:30:57.629Z,99.90
2023-04-16T22:33:24.903Z,99.90
2023-04-16T22:35:52.272Z,99.90
2023-04-16T22:38:19.408Z,99.90
2023-04-16T22:40:48.889Z,99.90
2023-04-16T22:43:17.752Z,99.90
2023-04-16T22:45:46.551Z,99.90
2023-04-16T22:48:13.856Z,99.90
2023-04-16T22:50:46.215Z,99.90
2023-04-16T22:53:13.478Z,99.90
2023-04-16T22:55:40.602Z,99.90
2023-04-16T22:58:07.910Z,99.90
2023-04-16T23:00:35.346Z,99.90
2023-04-16T23:03:02.799Z,99.90
2023-04-16T23:05:30.102Z,99.90
2023-04-16T23:07:57.351Z,99.90
2023-04-16T23:10:24.507Z,99.90
2023-04-16T23:12:51.838Z,99.90
2023-04-16T23:15:19.090Z,99.90
2023-04-16T23:17:46.791Z,99.90
2023-04-16T23:20:14.437Z,99.90
2023-04-16T23:22:42.037Z,99.90
2023-04-16T23:25:09.758Z,99.90
2023-04-16T23:27:37.174Z,99.90
2023-04-16T23:30:05.487Z,99.90
2023-04-16T23:32:34.197Z,99.90
2023-04-16T23:35:01.649Z,99.90
2023-04-16T23:37:28.868Z,99.90
2023-04-16T23:39:56.050Z,99.90
2023-04-16T23:42:23.348Z,99.90
2023-04-16T23:44:50.584Z,99.90
2023-04-16T23:47:17.788Z,99.90
2023-04-16T23:49:45.038Z,99.90
2023-04-16T23:52:12.297Z,99.90
2023-04-16T23:54:39.477Z,99.90
2023-04-16T23:57:06.839Z,99.90
2023-04-16T23:59:33.948Z,99.90
